Time;durP1;ratioP1;P1;durP2;ratioP2;P2;SDS_P1;SDS_P2;PMS_P1;PMS_P2;Temp;Humidity;BMP_temperature;BMP_pressure;BME280_temperature;BME280_humidity;BME280_pressure;Samples;Min_cycle;Max_cycle;Signal;HPM_P1;HPM_P2
2023/07/26 00:02:09;;;;;;;16.63;7.70;;;14.90;99.90;;;;;;5089988;28;20418;-69
2023/07/26 00:04:35;;;;;;;21.83;9.33;;;14.90;99.90;;;;;;5089148;28;20430;-69
2023/07/26 00:07:00;;;;;;;19.63;9.40;;;14.90;99.90;;;;;;5083484;28;20787;-69
2023/07/26 00:09:26;;;;;;;18.17;7.70;;;14.90;99.90;;;;;;5089518;28;20448;-69
2023/07/26 00:11:51;;;;;;;19.20;9.60;;;15.00;99.90;;;;;;5089418;28;20963;-69
2023/07/26 00:14:18;;;;;;;19.40;9.30;;;14.90;99.90;;;;;;5089993;28;20398;-70
2023/07/26 00:16:44;;;;;;;20.23;8.63;;;14.90;99.90;;;;;;5089739;28;20421;-69
2023/07/26 00:19:10;;;;;;;16.03;8.30;;;14.90;99.90;;;;;;5089679;28;20458;-69
2023/07/26 00:21:35;;;;;;;22.10;9.60;;;14.90;99.90;;;;;;5071784;28;20386;-69
2023/07/26 00:24:01;;;;;;;16.93;8.43;;;15.00;99.90;;;;;;5089923;28;20410;-69
2023/07/26 00:26:26;;;;;;;20.00;9.53;;;15.10;99.90;;;;;;5092553;28;20435;-70
2023/07/26 00:28:52;;;;;;;19.15;8.15;;;15.10;99.90;;;;;;5095031;28;20903;-70
2023/07/26 00:31:17;;;;;;;17.40;8.20;;;14.90;99.90;;;;;;5094650;28;20394;-69
2023/07/26 00:33:43;;;;;;;22.83;8.93;;;14.90;99.90;;;;;;5093965;28;20394;-69
2023/07/26 00:36:09;;;;;;;18.03;9.03;;;14.90;99.90;;;;;;5076160;28;20393;-70
2023/07/26 00:38:35;;;;;;;22.17;9.52;;;14.90;99.90;;;;;;5076975;28;20389;-69
2023/07/26 00:41:00;;;;;;;17.70;7.73;;;14.90;99.90;;;;;;5081733;28;20392;-70
2023/07/26 00:43:26;;;;;;;18.80;9.00;;;15.00;99.90;;;;;;5073971;28;20506;-68
2023/07/26 00:45:53;;;;;;;20.13;9.60;;;15.10;99.90;;;;;;5074411;28;20468;-68
2023/07/26 00:48:19;;;;;;;15.25;7.82;;;15.10;99.90;;;;;;5073720;28;20392;-69
2023/07/26 00:50:46;;;;;;;16.40;8.30;;;15.20;99.90;;;;;;5073832;28;20904;-70
2023/07/26 00:53:13;;;;;;;19.70;9.18;;;15.20;99.90;;;;;;5074567;28;20404;-69
2023/07/26 00:55:39;;;;;;;16.98;8.15;;;15.20;99.90;;;;;;5089742;28;20767;-69
2023/07/26 00:58:05;;;;;;;15.50;7.30;;;15.20;99.90;;;;;;5081577;28;20395;-69
2023/07/26 01:00:31;;;;;;;17.63;8.15;;;15.20;99.90;;;;;;5075124;28;20396;-69
2023/07/26 01:02:57;;;;;;;17.75;7.38;;;15.20;99.90;;;;;;5073819;28;20444;-69
2023/07/26 01:05:27;;;;;;;14.07;6.50;;;15.20;99.90;;;;;;5073806;28;20901;-69
2023/07/26 01:08:30;;;;;;;16.00;7.00;;;15.20;99.90;;;;;;5074604;28;20467;-69
2023/07/26 01:10:59;;;;;;;15.63;6.80;;;15.30;99.90;;;;;;5075263;28;20392;-69
2023/07/26 01:13:51;;;;;;;14.30;6.50;;;15.30;99.90;;;;;;5074517;28;20738;-69
2023/07/26 01:16:19;;;;;;;13.97;7.20;;;15.20;99.90;;;;;;5074179;28;20907;-68
2023/07/26 01:18:44;;;;;;;13.50;6.13;;;15.10;99.90;;;;;;5074151;28;20403;-69
2023/07/26 01:21:10;;;;;;;12.73;6.60;;;15.00;99.90;;;;;;5074399;28;20487;-69
2023/07/26 01:23:35;;;;;;;13.80;6.10;;;14.80;99.90;;;;;;5083621;28;20402;-70
2023/07/26 01:26:01;;;;;;;12.90;6.30;;;14.70;99.90;;;;;;5093757;28;20461;-69
2023/07/26 01:28:26;;;;;;;13.55;6.10;;;14.70;99.90;;;;;;5093545;28;20508;-70
2023/07/26 01:30:53;;;;;;;12.53;5.30;;;14.60;99.90;;;;;;5090957;28;20958;-69
2023/07/26 01:33:20;;;;;;;12.43;5.70;;;14.60;99.90;;;;;;5054925;28;20396;-69
2023/07/26 01:35:49;;;;;;;11.85;5.60;;;14.50;99.90;;;;;;5072775;28;20450;-68
2023/07/26 01:38:16;;;;;;;9.13;4.43;;;14.60;99.90;;;;;;5073589;28;20383;-69
2023/07/26 01:40:42;;;;;;;9.10;3.83;;;14.70;99.90;;;;;;5072193;28;20428;-68
2023/07/26 01:43:07;;;;;;;10.95;5.80;;;14.70;99.90;;;;;;5070194;28;20482;-68
2023/07/26 01:45:33;;;;;;;11.40;4.97;;;14.50;99.90;;;;;;5071390;28;20400;-68
2023/07/26 01:47:59;;;;;;;11.33;4.60;;;14.50;99.90;;;;;;5074494;28;20440;-69
2023/07/26 01:50:24;;;;;;;11.70;5.50;;;14.50;99.90;;;;;;5090430;28;20458;-69
2023/07/26 01:52:50;;;;;;;8.73;4.00;;;14.50;99.90;;;;;;5091824;28;20382;-68
2023/07/26 01:55:15;;;;;;;10.20;5.17;;;14.60;99.90;;;;;;5091431;28;20597;-68
2023/07/26 01:57:41;;;;;;;9.73;4.50;;;14.70;99.90;;;;;;5091385;28;20398;-68
2023/07/26 02:00:07;;;;;;;11.65;4.70;;;14.70;99.90;;;;;;5091418;28;20418;-68
2023/07/26 02:02:33;;;;;;;9.63;4.90;;;14.60;99.90;;;;;;5091472;28;20381;-68
2023/07/26 02:04:59;;;;;;;10.83;5.10;;;14.60;99.90;;;;;;5086545;28;20767;-68
2023/07/26 02:07:24;;;;;;;9.30;4.47;;;14.70;99.90;;;;;;5071123;28;20386;-68
2023/07/26 02:09:50;;;;;;;9.17;4.00;;;14.80;99.90;;;;;;5070298;28;20395;-68
2023/07/26 02:12:15;;;;;;;12.23;5.10;;;14.90;99.90;;;;;;5071179;28;20458;-68
2023/07/26 02:14:41;;;;;;;9.83;4.20;;;14.90;99.90;;;;;;5086405;28;20837;-68
2023/07/26 02:17:06;;;;;;;9.70;4.38;;;14.90;99.90;;;;;;5090331;28;20370;-69
2023/07/26 02:19:32;;;;;;;12.50;4.55;;;14.90;99.90;;;;;;5091591;28;20405;-69
2023/07/26 02:21:57;;;;;;;8.67;3.80;;;14.80;94.50;;;;;;5086655;28;20383;-69
2023/07/26 02:24:23;;;;;;;9.60;4.30;;;14.70;87.90;;;;;;5070416;28;20882;-69
2023/07/26 02:26:48;;;;;;;7.70;3.50;;;14.60;77.20;;;;;;5070413;28;20395;-69
2023/07/26 02:29:14;;;;;;;8.23;3.92;;;14.60;99.90;;;;;;5070394;28;20392;-69
2023/07/26 02:31:39;;;;;;;9.23;3.78;;;14.60;99.90;;;;;;5070128;28;20396;-69
2023/07/26 02:34:05;;;;;;;9.23;4.17;;;14.50;96.60;;;;;;5070791;28;20387;-69
2023/07/26 02:36:31;;;;;;;11.93;4.10;;;14.60;48.00;;;;;;5069679;28;20391;-69
2023/07/26 02:38:56;;;;;;;9.82;3.60;;;14.60;38.40;;;;;;5074369;28;20510;-69
2023/07/26 02:41:22;;;;;;;10.80;3.77;;;14.60;40.20;;;;;;5071389;28;20403;-69
2023/07/26 02:43:47;;;;;;;8.87;3.53;;;14.60;39.00;;;;;;5070810;28;20504;-69
2023/07/26 02:46:12;;;;;;;8.97;3.57;;;14.50;28.30;;;;;;5069605;28;20418;-69
2023/07/26 02:48:38;;;;;;;8.38;3.60;;;14.40;56.90;;;;;;5069398;28;20386;-69
2023/07/26 02:51:04;;;;;;;6.80;2.78;;;14.40;63.30;;;;;;5071589;28;20395;-69
2023/07/26 02:53:29;;;;;;;8.60;3.80;;;14.20;85.20;;;;;;5090346;28;20779;-69
2023/07/26 02:55:55;;;;;;;6.80;3.00;;;14.10;91.50;;;;;;5086451;28;20419;-69
2023/07/26 02:58:20;;;;;;;12.60;3.70;;;14.10;99.90;;;;;;5070185;28;20441;-69
2023/07/26 03:00:46;;;;;;;9.80;3.70;;;14.10;90.80;;;;;;5070024;28;20400;-69
2023/07/26 03:03:11;;;;;;;8.30;3.33;;;14.00;77.30;;;;;;5069763;28;20422;-69
2023/07/26 03:05:37;;;;;;;6.70;2.80;;;13.90;99.90;;;;;;5068510;28;20501;-69
2023/07/26 03:08:03;;;;;;;10.15;3.58;;;13.80;99.90;;;;;;5070417;28;20428;-69
2023/07/26 03:10:29;;;;;;;11.15;3.60;;;13.70;99.90;;;;;;5069474;28;20424;-69
2023/07/26 03:12:55;;;;;;;8.80;3.10;;;13.70;99.90;;;;;;5070089;28;20455;-69
2023/07/26 03:15:22;;;;;;;6.45;2.78;;;13.70;99.90;;;;;;5069472;28;20376;-69
2023/07/26 03:17:47;;;;;;;7.25;3.22;;;13.70;99.90;;;;;;5069344;28;20847;-69
2023/07/26 03:20:13;;;;;;;7.20;3.20;;;13.70;99.90;;;;;;5069632;28;20391;-69
2023/07/26 03:22:38;;;;;;;9.53;3.63;;;13.80;99.90;;;;;;5069385;28;20873;-69
2023/07/26 03:25:04;;;;;;;9.30;3.10;;;13.70;99.90;;;;;;5069919;28;20416;-69
2023/07/26 03:27:30;;;;;;;7.82;3.05;;;13.70;99.90;;;;;;5068948;28;20411;-69
2023/07/26 03:29:55;;;;;;;6.53;2.90;;;13.70;99.90;;;;;;5073797;28;20649;-69
2023/07/26 03:32:21;;;;;;;7.35;2.60;;;13.70;99.90;;;;;;5089514;28;20719;-69
2023/07/26 03:34:47;;;;;;;9.00;2.95;;;13.60;97.00;;;;;;5089742;28;20386;-69
2023/07/26 03:37:12;;;;;;;7.25;3.08;;;13.70;80.40;;;;;;5089633;28;20432;-69
2023/07/26 03:39:38;;;;;;;7.63;2.40;;;13.60;76.10;;;;;;5089131;28;20384;-68
2023/07/26 03:42:03;;;;;;;6.80;2.50;;;13.70;90.00;;;;;;5089028;28;20433;-68
2023/07/26 03:44:29;;;;;;;8.10;2.40;;;13.70;91.30;;;;;;5088732;28;20417;-69
2023/07/26 03:46:54;;;;;;;8.40;3.28;;;13.70;85.40;;;;;;5085350;28;20402;-68
2023/07/26 03:49:20;;;;;;;6.00;2.80;;;13.60;85.90;;;;;;5071902;28;20426;-68
2023/07/26 03:51:45;;;;;;;7.10;2.63;;;13.60;77.80;;;;;;5079589;28;20863;-69
2023/07/26 03:54:11;;;;;;;7.23;3.00;;;13.50;99.90;;;;;;5088727;28;20397;-68
2023/07/26 03:56:36;;;;;;;11.63;3.65;;;13.50;99.90;;;;;;5089397;28;20431;-68
2023/07/26 03:59:02;;;;;;;14.93;3.53;;;13.40;99.90;;;;;;5091264;28;20741;-68
2023/07/26 04:01:28;;;;;;;7.65;3.00;;;13.30;99.90;;;;;;5091780;28;20393;-68
2023/07/26 04:03:53;;;;;;;8.40;3.50;;;13.30;99.90;;;;;;5087396;28;20487;-69
2023/07/26 04:06:19;;;;;;;7.13;3.23;;;13.30;99.90;;;;;;5069356;28;20383;-75
2023/07/26 04:08:44;;;;;;;8.70;3.73;;;13.30;99.90;;;;;;5086430;28;20393;-75
2023/07/26 04:11:11;;;;;;;7.57;3.60;;;13.40;99.90;;;;;;5089378;28;20873;-75
2023/07/26 04:13:37;;;;;;;7.97;3.80;;;13.50;99.90;;;;;;5087915;28;20449;-74
2023/07/26 04:16:12;;;;;;;8.10;3.37;;;13.50;99.90;;;;;;5077481;28;20394;-75
2023/07/26 04:18:37;;;;;;;10.55;3.83;;;13.60;99.90;;;;;;5069658;28;20431;-75
2023/07/26 04:21:03;;;;;;;9.03;4.00;;;13.70;99.90;;;;;;5076041;28;20503;-75
2023/07/26 04:23:28;;;;;;;8.38;3.50;;;13.70;99.90;;;;;;5077860;28;20410;-74
2023/07/26 04:25:54;;;;;;;9.60;4.13;;;13.80;99.90;;;;;;5093944;28;20404;-74
2023/07/26 04:28:20;;;;;;;8.73;3.80;;;13.80;99.90;;;;;;5072244;28;20400;-75
2023/07/26 04:30:47;;;;;;;9.32;4.30;;;13.80;73.90;;;;;;5077959;28;20940;-74
2023/07/26 04:33:12;;;;;;;9.00;3.50;;;13.90;99.90;;;;;;5071897;28;20470;-74
2023/07/26 04:35:38;;;;;;;8.67;3.73;;;13.90;89.00;;;;;;5073811;28;20414;-74
2023/07/26 04:38:04;;;;;;;10.83;4.30;;;13.90;94.90;;;;;;5067716;28;20418;-74
2023/07/26 04:40:29;;;;;;;10.30;3.80;;;14.00;45.70;;;;;;5076607;28;20410;-74
2023/07/26 04:42:55;;;;;;;9.87;4.20;;;14.10;51.00;;;;;;5078977;28;20435;-74
2023/07/26 04:45:20;;;;;;;9.10;4.00;;;14.20;37.40;;;;;;5067339;28;20419;-74
2023/07/26 04:47:46;;;;;;;8.30;3.40;;;14.20;20.10;;;;;;5067294;28;20955;-74
2023/07/26 04:50:11;;;;;;;12.68;4.15;;;14.30;28.40;;;;;;5067566;28;20407;-74
2023/07/26 04:52:37;;;;;;;9.20;4.17;;;14.40;26.20;;;;;;5069595;28;20425;-74
2023/07/26 04:55:07;;;;;;;13.20;4.65;;;14.50;33.90;;;;;;5081497;28;20398;-74
2023/07/26 05:03:30;;;;;;;8.27;3.80;;;14.60;1.00;;;;;;5006139;28;20464;-68
2023/07/26 05:05:56;;;;;;;11.57;4.10;;;14.50;1.00;;;;;;5008689;28;20408;-68
2023/07/26 05:08:21;;;;;;;8.82;3.70;;;14.50;1.00;;;;;;5008747;28;20389;-68
2023/07/26 05:10:51;;;;;;;11.02;4.15;;;14.40;1.00;;;;;;5008615;28;20459;-67
2023/07/26 05:13:17;;;;;;;9.57;4.15;;;14.50;1.00;;;;;;5011094;28;20385;-68
2023/07/26 05:15:42;;;;;;;7.90;3.80;;;14.50;1.00;;;;;;5007020;28;20409;-67
2023/07/26 05:18:08;;;;;;;7.93;3.53;;;14.50;1.00;;;;;;5010556;28;20403;-66
2023/07/26 05:20:33;;;;;;;11.10;4.40;;;14.60;1.00;;;;;;5009948;28;20768;-66
2023/07/26 05:22:59;;;;;;;9.20;3.90;;;14.60;1.00;;;;;;5007767;28;20427;-66
2023/07/26 05:25:24;;;;;;;9.18;3.95;;;14.50;1.00;;;;;;5010552;28;20420;-66
2023/07/26 05:27:50;;;;;;;8.40;3.75;;;14.50;1.00;;;;;;5011262;28;20409;-66
2023/07/26 05:30:17;;;;;;;8.60;4.20;;;14.50;1.00;;;;;;5010321;28;20403;-66
2023/07/26 05:32:43;;;;;;;9.07;4.00;;;14.60;1.00;;;;;;5011122;28;20395;-66
2023/07/26 05:35:11;;;;;;;10.35;4.00;;;14.90;1.00;;;;;;5009769;28;20413;-66
2023/07/26 05:37:37;;;;;;;8.25;4.05;;;15.10;1.00;;;;;;4994268;28;20890;-66
2023/07/26 05:40:05;;;;;;;8.70;4.20;;;15.10;1.00;;;;;;4995113;28;20458;-66
2023/07/26 05:42:34;;;;;;;8.80;4.00;;;15.20;1.00;;;;;;5010741;28;21097;-66
2023/07/26 05:44:59;;;;;;;9.07;4.20;;;15.20;1.00;;;;;;5009661;28;20425;-66
2023/07/26 05:47:25;;;;;;;8.70;3.77;;;15.30;1.00;;;;;;5009981;28;20399;-66
2023/07/26 05:49:50;;;;;;;10.57;4.45;;;15.30;1.00;;;;;;5010608;28;20400;-66
2023/07/26 05:52:16;;;;;;;9.03;4.00;;;15.30;1.00;;;;;;5010549;28;20408;-66
2023/07/26 05:54:42;;;;;;;10.17;4.67;;;15.20;1.00;;;;;;5010091;28;20393;-66
2023/07/26 05:57:07;;;;;;;10.80;3.38;;;15.20;1.00;;;;;;5009646;28;20745;-66
2023/07/26 05:59:33;;;;;;;9.50;4.07;;;15.10;1.00;;;;;;5009989;28;20393;-66
2023/07/26 06:01:59;;;;;;;7.77;4.10;;;15.10;1.00;;;;;;5023192;28;20476;-66
2023/07/26 06:04:25;;;;;;;8.80;4.25;;;15.10;1.00;;;;;;5027713;28;20485;-66
2023/07/26 06:06:50;;;;;;;7.90;3.92;;;15.00;1.00;;;;;;5009906;28;20419;-66
2023/07/26 06:09:16;;;;;;;8.87;3.30;;;15.20;1.00;;;;;;5030320;28;20399;-66
2023/07/26 06:11:42;;;;;;;8.50;3.42;;;15.40;1.00;;;;;;5030267;28;20467;-66
2023/07/26 06:14:08;;;;;;;8.97;3.50;;;15.70;1.00;;;;;;5029966;28;20474;-66
2023/07/26 06:16:34;;;;;;;7.15;3.25;;;15.80;1.00;;;;;;5030223;28;20395;-66
2023/07/26 06:18:59;;;;;;;7.90;3.43;;;16.10;1.00;;;;;;5030251;28;20379;-66
2023/07/26 06:21:25;;;;;;;7.30;3.40;;;16.20;99.90;;;;;;5030586;28;20391;-66
2023/07/26 06:23:50;;;;;;;7.97;3.42;;;16.30;99.90;;;;;;5029932;28;20490;-67
2023/07/26 06:26:16;;;;;;;8.23;3.47;;;16.70;99.90;;;;;;5030337;28;20387;-66
2023/07/26 06:28:42;;;;;;;7.27;3.13;;;16.90;99.90;;;;;;5030061;28;20470;-66
2023/07/26 06:31:08;;;;;;;8.20;3.00;;;17.10;1.00;;;;;;5029959;28;20395;-66
2023/07/26 06:33:34;;;;;;;8.07;2.87;;;17.20;1.00;;;;;;5030282;28;20882;-66
2023/07/26 06:35:59;;;;;;;7.33;3.30;;;17.10;1.00;;;;;;5029563;28;20832;-66
2023/07/26 06:38:25;;;;;;;6.38;2.53;;;16.90;1.00;;;;;;5030680;28;20394;-66
2023/07/26 06:40:50;;;;;;;6.30;2.77;;;16.80;87.30;;;;;;5029660;28;20402;-66
2023/07/26 06:43:16;;;;;;;7.57;3.20;;;16.70;99.90;;;;;;5029706;28;20391;-66
2023/07/26 06:45:46;;;;;;;7.50;2.90;;;16.60;99.90;;;;;;5029804;28;20419;-66
2023/07/26 06:48:12;;;;;;;7.53;3.00;;;16.50;99.90;;;;;;5029718;28;20387;-66
2023/07/26 06:50:40;;;;;;;6.90;2.90;;;16.30;99.90;;;;;;5029648;28;20392;-66
2023/07/26 06:53:07;;;;;;;6.15;2.80;;;16.20;1.00;;;;;;5029656;28;20399;-66
2023/07/26 06:55:34;;;;;;;7.17;3.30;;;16.20;1.00;;;;;;5029858;28;20379;-66
2023/07/26 06:57:59;;;;;;;7.43;2.87;;;16.20;99.90;;;;;;5029801;28;20390;-66
2023/07/26 07:00:25;;;;;;;8.90;2.60;;;16.10;99.90;;;;;;5029892;28;20387;-66
2023/07/26 07:02:57;;;;;;;7.27;3.13;;;15.90;99.90;;;;;;5029540;28;20549;-66
2023/07/26 07:05:23;;;;;;;6.70;3.22;;;15.80;1.00;;;;;;5029299;28;20425;-66
2023/07/26 07:07:49;;;;;;;7.15;3.20;;;15.60;1.00;;;;;;5029373;28;20387;-66
2023/07/26 07:10:14;;;;;;;7.30;3.00;;;15.40;1.00;;;;;;5029409;28;20395;-66
2023/07/26 07:12:40;;;;;;;6.80;3.13;;;15.10;1.00;;;;;;5028872;28;20424;-66
2023/07/26 07:15:07;;;;;;;8.35;3.17;;;15.00;1.00;;;;;;5028609;28;20403;-66
2023/07/26 07:17:32;;;;;;;8.10;3.17;;;14.90;1.00;;;;;;5029437;28;20469;-66
2023/07/26 07:19:58;;;;;;;7.00;3.13;;;14.90;1.00;;;;;;5029321;28;20469;-66
2023/07/26 07:22:25;;;;;;;10.32;3.85;;;14.80;15.60;;;;;;5029928;28;20407;-66
2023/07/26 07:24:54;;;;;;;7.65;3.38;;;14.90;17.80;;;;;;5010932;28;20839;-67
2023/07/26 07:27:23;;;;;;;7.78;3.83;;;15.00;41.70;;;;;;5030151;28;20442;-66
2023/07/26 07:29:48;;;;;;;7.63;3.67;;;14.90;19.70;;;;;;5028827;28;21133;-66
2023/07/26 07:32:14;;;;;;;12.65;3.83;;;14.90;26.90;;;;;;5028878;28;20409;-66
2023/07/26 07:34:39;;;;;;;7.72;3.00;;;15.00;37.10;;;;;;5028042;28;20398;-66
2023/07/26 07:37:05;;;;;;;8.53;3.80;;;15.10;26.80;;;;;;5028750;28;20474;-66
2023/07/26 07:39:32;;;;;;;8.30;3.80;;;15.20;33.70;;;;;;5028830;28;20431;-66
2023/07/26 07:41:57;;;;;;;8.20;3.70;;;15.30;60.40;;;;;;5029078;28;20390;-67
2023/07/26 07:44:23;;;;;;;10.50;4.20;;;15.40;1.00;;;;;;5028994;28;20415;-67
2023/07/26 07:46:49;;;;;;;7.53;3.70;;;15.50;11.90;;;;;;5028487;28;20422;-67
2023/07/26 07:49:14;;;;;;;10.37;3.40;;;15.60;26.90;;;;;;5028570;28;20437;-67
2023/07/26 07:51:40;;;;;;;10.97;4.17;;;15.50;1.00;;;;;;5028590;28;20879;-67
2023/07/26 07:54:05;;;;;;;9.35;4.50;;;15.30;1.00;;;;;;5028885;28;20399;-66
2023/07/26 07:56:31;;;;;;;8.38;3.60;;;15.30;15.20;;;;;;5028332;28;20391;-66
2023/07/26 07:58:56;;;;;;;8.60;4.10;;;15.30;40.80;;;;;;5028835;28;20395;-66
2023/07/26 08:01:23;;;;;;;7.50;3.33;;;15.50;18.10;;;;;;5028331;28;20871;-67
2023/07/26 08:03:48;;;;;;;9.50;3.43;;;15.40;1.00;;;;;;5028292;28;20831;-67
2023/07/26 08:06:14;;;;;;;9.70;3.80;;;15.30;1.00;;;;;;5028236;28;20395;-66
2023/07/26 08:08:40;;;;;;;9.07;3.75;;;15.30;7.20;;;;;;5028525;28;20417;-66
2023/07/26 08:11:08;;;;;;;8.70;3.67;;;15.30;9.50;;;;;;5028357;28;20541;-66
2023/07/26 08:13:35;;;;;;;8.35;3.60;;;15.40;1.00;;;;;;5028323;28;20390;-66
2023/07/26 08:16:00;;;;;;;7.35;3.25;;;15.70;1.60;;;;;;5028532;28;20770;-66
2023/07/26 08:18:26;;;;;;;7.25;3.10;;;15.90;1.00;;;;;;5028371;28;20441;-67
2023/07/26 08:20:51;;;;;;;6.57;3.00;;;16.00;1.00;;;;;;5028408;28;20390;-67
2023/07/26 08:23:17;;;;;;;7.30;3.00;;;15.90;1.00;;;;;;5028316;28;20882;-67
2023/07/26 08:25:43;;;;;;;7.60;3.03;;;15.90;1.00;;;;;;5027943;28;20419;-66
2023/07/26 08:28:08;;;;;;;7.00;3.10;;;16.00;1.00;;;;;;5028314;28;20391;-66
2023/07/26 08:30:34;;;;;;;7.75;2.90;;;16.00;1.00;;;;;;5028660;28;20898;-66
2023/07/26 08:33:00;;;;;;;7.32;3.40;;;16.10;1.00;;;;;;5027909;28;20872;-67
2023/07/26 08:35:25;;;;;;;11.50;3.40;;;16.20;1.00;;;;;;5028886;28;20383;-67
2023/07/26 08:37:51;;;;;;;7.57;3.65;;;16.30;1.00;;;;;;5028354;28;20811;-67
2023/07/26 08:40:17;;;;;;;8.55;3.97;;;16.40;1.00;;;;;;5028162;28;20943;-67
2023/07/26 08:42:44;;;;;;;8.05;3.70;;;16.60;1.00;;;;;;5028145;28;20391;-67
2023/07/26 08:45:10;;;;;;;7.78;3.40;;;16.70;1.00;;;;;;5037976;28;20430;-66
2023/07/26 08:47:36;;;;;;;10.98;3.40;;;16.70;1.00;;;;;;5042017;28;20390;-67
2023/07/26 08:50:06;;;;;;;8.80;3.60;;;17.00;1.00;;;;;;5032989;28;20409;-67
2023/07/26 08:52:32;;;;;;;7.78;3.50;;;17.30;99.90;;;;;;5031018;28;20884;-67
2023/07/26 08:54:59;;;;;;;10.10;3.70;;;17.50;99.90;;;;;;5031183;28;20414;-67
2023/07/26 08:57:25;;;;;;;7.80;3.38;;;17.50;99.90;;;;;;5031708;28;20462;-67
2023/07/26 08:59:51;;;;;;;6.93;3.40;;;17.80;99.90;;;;;;5031331;28;20744;-67
2023/07/26 09:02:19;;;;;;;8.90;3.27;;;18.10;99.90;;;;;;5030816;28;20411;-67
2023/07/26 09:04:46;;;;;;;6.90;3.20;;;18.40;1.00;;;;;;5031193;28;20410;-67
2023/07/26 09:07:12;;;;;;;7.00;3.40;;;18.30;1.00;;;;;;5031365;28;20490;-66
2023/07/26 09:09:38;;;;;;;9.23;3.10;;;18.10;99.90;;;;;;5030906;28;20433;-66
2023/07/26 09:12:05;;;;;;;7.25;3.50;;;17.50;99.90;;;;;;5031109;28;20424;-67
2023/07/26 09:14:32;;;;;;;7.45;3.58;;;17.20;99.90;;;;;;5029555;28;20436;-66
2023/07/26 09:17:00;;;;;;;8.52;3.17;;;17.20;1.00;;;;;;5031069;28;20494;-66
2023/07/26 09:19:33;;;;;;;8.10;3.40;;;17.30;1.00;;;;;;5013533;28;20833;-67
2023/07/26 09:22:00;;;;;;;7.27;3.30;;;17.30;1.00;;;;;;5030525;28;21024;-67
2023/07/26 09:24:35;;;;;;;9.53;3.43;;;17.20;1.00;;;;;;5031620;28;20903;-67
2023/07/26 09:27:08;;;;;;;8.63;3.35;;;17.20;1.00;;;;;;5031255;28;20544;-66
2023/07/26 09:29:35;;;;;;;6.50;2.60;;;17.10;1.00;;;;;;5030411;28;20383;-66
2023/07/26 09:32:01;;;;;;;7.95;2.90;;;17.20;1.00;;;;;;5031092;28;20403;-66
2023/07/26 09:34:29;;;;;;;7.28;2.80;;;16.90;1.00;;;;;;5031211;28;20891;-66
2023/07/26 09:36:56;;;;;;;6.60;2.70;;;16.60;1.00;;;;;;5031267;28;20869;-66
2023/07/26 09:39:25;;;;;;;6.60;2.50;;;16.30;1.00;;;;;;5033753;28;20925;-66
2023/07/26 09:42:08;;;;;;;7.35;3.13;;;16.30;1.00;;;;;;5035987;28;20406;-65
2023/07/26 09:44:35;;;;;;;5.70;2.10;;;16.20;1.00;;;;;;5040916;28;20424;-66
2023/07/26 09:47:01;;;;;;;7.10;2.80;;;16.20;1.00;;;;;;5051689;28;20473;-65
2023/07/26 09:49:29;;;;;;;6.33;2.53;;;16.30;1.00;;;;;;5052571;28;20459;-66
2023/07/26 09:51:57;;;;;;;7.70;3.30;;;16.30;1.00;;;;;;5051672;28;20467;-67
2023/07/26 09:54:28;;;;;;;6.68;2.78;;;16.40;1.00;;;;;;5031153;28;20419;-67
2023/07/26 09:56:58;;;;;;;8.48;2.60;;;16.60;1.00;;;;;;5031508;28;20819;-67
2023/07/26 09:59:29;;;;;;;6.90;2.10;;;16.90;1.00;;;;;;5032168;28;20790;-66
2023/07/26 10:01:58;;;;;;;6.50;2.40;;;16.70;1.00;;;;;;5043614;28;20414;-67
2023/07/26 10:04:40;;;;;;;6.22;2.50;;;16.50;1.00;;;;;;5051300;28;20751;-67
2023/07/26 10:07:10;;;;;;;5.70;2.03;;;16.70;1.00;;;;;;5051697;28;20390;-67
2023/07/26 10:09:43;;;;;;;6.13;2.07;;;17.40;99.90;;;;;;5051420;28;20830;-67
2023/07/26 10:12:09;;;;;;;6.20;2.10;;;18.10;99.90;;;;;;5051417;28;20378;-66
2023/07/26 10:14:36;;;;;;;6.35;2.20;;;18.80;1.00;;;;;;5034833;28;20403;-66
2023/07/26 10:17:03;;;;;;;6.47;2.30;;;19.60;1.00;;;;;;5030341;28;20387;-66
2023/07/26 10:19:30;;;;;;;6.80;1.90;;;18.70;1.00;;;;;;5030193;28;20388;-66
2023/07/26 10:21:59;;;;;;;6.00;2.10;;;18.40;99.90;;;;;;5030235;28;20852;-66
2023/07/26 10:24:26;;;;;;;6.60;2.25;;;17.90;99.90;;;;;;5030491;28;20415;-66
2023/07/26 10:26:53;;;;;;;6.40;2.57;;;17.50;1.00;;;;;;5030045;28;20383;-66
2023/07/26 10:29:22;;;;;;;7.00;2.75;;;17.30;99.90;;;;;;5029920;28;20393;-66
2023/07/26 10:32:02;;;;;;;6.43;2.55;;;17.90;99.90;;;;;;5029042;28;20395;-67
2023/07/26 10:34:28;;;;;;;6.10;2.40;;;18.70;1.00;;;;;;5030558;28;20394;-67
2023/07/26 10:36:54;;;;;;;6.50;2.20;;;19.00;1.00;;;;;;5012672;28;20482;-67
2023/07/26 10:39:33;;;;;;;6.32;2.10;;;19.30;1.00;;;;;;5029934;28;20399;-67
2023/07/26 10:41:59;;;;;;;6.50;2.10;;;19.50;99.90;;;;;;5028758;28;20410;-67
2023/07/26 10:44:25;;;;;;;6.20;2.00;;;19.70;1.00;;;;;;5029912;28;20418;-67
2023/07/26 10:46:54;;;;;;;5.55;1.73;;;19.50;1.00;;;;;;5029329;28;20394;-67
2023/07/26 10:49:21;;;;;;;6.32;2.33;;;19.40;1.00;;;;;;5028587;28;20780;-67
2023/07/26 10:51:52;;;;;;;5.50;1.90;;;19.30;7.60;;;;;;5030922;28;20432;-67
2023/07/26 10:54:41;;;;;;;6.22;2.45;;;19.10;34.20;;;;;;5048607;28;20381;-67
2023/07/26 10:57:36;;;;;;;5.68;1.90;;;18.80;1.00;;;;;;5048294;28;20649;-66
2023/07/26 11:00:09;;;;;;;7.00;2.60;;;18.90;99.90;;;;;;5048645;28;20805;-66
2023/07/26 11:02:39;;;;;;;5.60;2.37;;;18.50;1.00;;;;;;5048994;28;20408;-67
2023/07/26 11:05:16;;;;;;;6.70;2.47;;;18.50;99.90;;;;;;5048866;28;20766;-67
2023/07/26 11:07:54;;;;;;;6.30;2.40;;;18.90;1.00;;;;;;5048529;28;20452;-67
2023/07/26 11:10:23;;;;;;;5.90;2.10;;;19.30;99.90;;;;;;5032392;28;20481;-67
2023/07/26 11:12:50;;;;;;;7.00;2.50;;;19.40;1.00;;;;;;5028835;28;20391;-67
2023/07/26 11:15:37;;;;;;;7.40;2.37;;;19.70;99.90;;;;;;5028831;28;20855;-67
2023/07/26 11:18:03;;;;;;;5.78;1.90;;;19.50;1.00;;;;;;5028328;28;20730;-66
2023/07/26 11:20:29;;;;;;;6.13;2.07;;;19.70;99.90;;;;;;5028930;28;20398;-67
2023/07/26 11:22:55;;;;;;;6.35;2.00;;;19.60;99.90;;;;;;5028135;28;20760;-68
2023/07/26 11:25:21;;;;;;;5.80;1.88;;;19.60;65.10;;;;;;5024306;28;20424;-67
2023/07/26 11:27:49;;;;;;;6.67;1.60;;;19.60;1.00;;;;;;5028650;28;20391;-67
2023/07/26 11:30:17;;;;;;;6.03;1.60;;;20.10;32.90;;;;;;5028397;28;20395;-67
2023/07/26 11:32:44;;;;;;;5.70;1.70;;;20.30;1.00;;;;;;5028636;28;20391;-67
2023/07/26 11:35:09;;;;;;;6.40;1.90;;;20.70;1.00;;;;;;5028421;28;20399;-67
2023/07/26 11:37:35;;;;;;;5.50;1.60;;;20.90;1.00;;;;;;5028423;28;20379;-67
2023/07/26 11:40:05;;;;;;;5.40;1.50;;;20.80;1.00;;;;;;5028684;28;20402;-67
2023/07/26 11:42:33;;;;;;;6.10;1.80;;;20.80;1.00;;;;;;5029023;28;20383;-66
2023/07/26 11:45:03;;;;;;;5.35;1.45;;;20.80;1.00;;;;;;4990740;28;20425;-66
2023/07/26 11:47:32;;;;;;;6.72;2.00;;;20.90;1.00;;;;;;5008038;28;20495;-67
2023/07/26 11:49:58;;;;;;;6.05;2.10;;;21.30;1.00;;;;;;5009142;28;20401;-67
2023/07/26 11:52:23;;;;;;;6.00;1.50;;;21.80;1.00;;;;;;5009132;28;20381;-67
2023/07/26 11:55:03;;;;;;;5.60;1.50;;;22.40;1.00;;;;;;5018435;28;20391;-67
2023/07/26 11:57:30;;;;;;;6.17;1.80;;;22.20;99.90;;;;;;5027167;28;20403;-67
2023/07/26 11:59:59;;;;;;;5.50;1.63;;;22.00;1.00;;;;;;5026773;28;20937;-66
2023/07/26 12:02:26;;;;;;;5.72;1.67;;;21.90;99.90;;;;;;5029985;28;20438;-66
2023/07/26 12:05:18;;;;;;;5.78;1.70;;;21.40;99.90;;;;;;5026336;28;20481;-68
2023/07/26 12:07:52;;;;;;;5.40;1.67;;;21.40;99.90;;;;;;5027661;28;20402;-67
2023/07/26 12:10:31;;;;;;;6.13;2.10;;;21.70;99.90;;;;;;5025413;28;20391;-67
2023/07/26 12:12:58;;;;;;;6.03;2.00;;;21.40;99.90;;;;;;5024337;28;20407;-66
2023/07/26 12:15:26;;;;;;;6.18;1.88;;;21.20;99.90;;;;;;5026479;28;20417;-66
2023/07/26 12:18:02;;;;;;;5.80;1.70;;;20.90;99.90;;;;;;5027105;28;20407;-67
2023/07/26 12:20:29;;;;;;;6.35;1.50;;;20.50;99.90;;;;;;5034922;28;20399;-67
2023/07/26 12:22:57;;;;;;;6.57;1.90;;;20.50;99.90;;;;;;5033295;28;20447;-67
2023/07/26 12:25:37;;;;;;;6.13;1.60;;;20.50;99.90;;;;;;5030787;28;20415;-67
2023/07/26 12:28:07;;;;;;;5.70;1.50;;;20.50;99.90;;;;;;5026047;28;20772;-67
2023/07/26 12:30:33;;;;;;;6.30;1.70;;;20.20;99.90;;;;;;5020967;28;20512;-67
2023/07/26 12:33:13;;;;;;;6.60;2.00;;;20.20;99.90;;;;;;5030271;28;20402;-67
2023/07/26 12:35:44;;;;;;;6.80;2.17;;;20.10;99.90;;;;;;5028428;28;20407;-68
2023/07/26 12:38:11;;;;;;;6.00;1.80;;;20.30;99.90;;;;;;5030778;28;20407;-68
2023/07/26 12:40:37;;;;;;;6.05;1.70;;;20.10;99.90;;;;;;5031456;28;20392;-67
2023/07/26 12:43:22;;;;;;;7.07;1.98;;;20.10;99.90;;;;;;5031774;28;20437;-68
2023/07/26 12:45:48;;;;;;;6.23;2.20;;;20.30;99.90;;;;;;5026089;28;20415;-66
2023/07/26 12:48:13;;;;;;;6.20;1.70;;;19.80;1.00;;;;;;5025978;28;20931;-66
2023/07/26 12:50:39;;;;;;;6.15;1.90;;;19.20;1.00;;;;;;5026007;28;20407;-66
2023/07/26 12:53:06;;;;;;;6.65;2.00;;;19.20;1.00;;;;;;5027776;28;20411;-66
2023/07/26 12:55:34;;;;;;;6.32;1.88;;;19.60;1.00;;;;;;5031014;28;20430;-67